Flight Track Log - Related Links

Times and Time Zones

All times are in EDT time to prevent confusion due to time zone crossing. See the JUS327 flight status page for this flight to view local times or setup timezone preferences in your user account.

Time Position Orientation Groundspeed Altitude Reporting Facility
EDT Latitude Longitude Course Direction KTS MPH feet Rate Location/Type
Thu 12:27:31 PM 25.9142 -97.4344 322° Northwest 154 177 500  Level Houston Center
Thu 12:27:56 PM 25.9281 -97.4464 322° Northwest 151 174 1,600 2,047 Climbing Houston Center
Thu 12:28:56 PM 25.9819 -97.4578 349° North 192 221 3,400 1,736 Climbing Houston Center
Thu 12:29:57 PM 26.0411 -97.4592 359° North 206 237 5,100 1,500 Climbing Houston Center
Thu 12:30:12 PM 26.0581 -97.4578 North 225 259 5,300 2,462 Climbing Houston Center
Thu 12:31:15 PM 26.1400 -97.4547 North 272 313 8,300 2,323 Climbing Houston Center
Thu 12:32:16 PM 26.2194 -97.4564 359° North 285 328 10,100 1,366 Climbing Houston Center
Thu 12:33:18 PM 26.3250 -97.4558 360° North 354 407 11,100 1,645 Climbing Houston Center
Thu 12:34:20 PM 26.4339 -97.4531 North 387 445 13,500 2,323 Climbing Houston Center
Thu 12:35:22 PM 26.5506 -97.4489 North 389 448 15,900 1,839 Climbing Houston Center
Thu 12:36:24 PM 26.6647 -97.4497 360° North 407 468 17,300 1,887 Climbing Houston Center
Thu 12:37:26 PM 26.7939 -97.4508 360° North 428 493 19,800 2,226 Climbing Houston Center
Thu 12:38:28 PM 26.9125 -97.4431 North 427 491 21,900 1,403 Climbing Houston Center
Thu 12:39:30 PM 27.0317 -97.4533 356° North 430 495 22,700 871 Climbing Houston Center
Thu 12:40:32 PM 27.1439 -97.4492 North 452 520 23,700 1,258 Climbing Houston Center
Thu 12:41:34 PM 27.2969 -97.4306 North 461 531 25,300 1,258 Climbing Houston Center
Thu 12:42:36 PM 27.4028 -97.3317 40° Northeast 503 579 26,300 919 Climbing Houston Center
Thu 12:43:38 PM 27.4950 -97.2047 51° Northeast 519 597 27,200 1,113 Climbing Houston Center
Thu 12:44:40 PM 27.6047 -97.0836 44° Northeast 520 598 28,600 1,258 Climbing Houston Center
Thu 12:45:42 PM 27.6961 -96.9556 51° Northeast 525 604 29,800 1,268 Climbing Houston Center
Thu 12:46:43 PM 27.7925 -96.8339 48° Northeast 522 601 31,200 1,220 Climbing Houston Center
Thu 12:47:45 PM 27.8867 -96.7164 48° Northeast 512 589 32,300 823 Climbing Houston Center
Thu 12:48:47 PM 27.9717 -96.5911 52° Northeast 506 582 32,900 581 Climbing Houston Center
Thu 12:49:49 PM 28.0889 -96.4556 46° Northeast 503 579 33,500 532 Climbing Houston Center
Thu 12:50:51 PM 28.1689 -96.3206 56° Northeast 511 588 34,000 532 Climbing Houston Center
Thu 12:51:53 PM 28.2469 -96.1814 57° Northeast 522 601 34,600 435 Climbing Houston Center
Thu 12:52:55 PM 28.3378 -96.0578 50° Northeast 516 594 34,900 146 Climbing Houston Center
Thu 12:53:56 PM 28.4064 -95.8850 66° East 524 603 34,900  Level Houston Center
Thu 12:54:58 PM 28.4475 -95.7256 74° East 526 605 34,900  Level Houston Center
Thu 12:56:00 PM 28.4772 -95.5578 79° East 541 623 34,900  Level Houston Center
Thu 12:57:02 PM 28.5036 -95.3933 80° East 535 616 34,900  Level Houston Center
Thu 12:58:03 PM 28.5253 -95.2258 82° East 536 617 34,900  Level Houston Center
Thu 12:59:05 PM 28.5503 -95.0617 80° East 533 613 34,900  Level Houston Center
Thu 01:00:07 PM 28.5753 -94.8681 82° East 522 601 34,900  Level Houston Center
Thu 01:01:09 PM 28.5972 -94.7094 81° East 513 590 34,900  Level Houston Center
Thu 01:02:10 PM 28.6181 -94.5511 81° East 510 587 34,900  Level Houston Center
Thu 01:03:12 PM 28.6417 -94.3917 80° East 513 590 34,900  Level Houston Center
Thu 01:04:14 PM 28.6631 -94.2333 81° East 510 587 34,900  Level Houston Center
Thu 01:05:16 PM 28.6850 -94.0747 81° East 509 586 34,900  Level Houston Center
Thu 01:06:17 PM 28.7108 -93.8836 81° East 512 589 34,900  Level Houston Center
Thu 01:07:19 PM 28.7325 -93.7233 81° East 513 590 34,900  Level Houston Center
Thu 01:08:21 PM 28.7542 -93.5622 81° East 515 593 34,900  Level Houston Center
Thu 01:09:23 PM 28.7742 -93.4136 81° East 517 595 34,900  Level Houston Center
Thu 01:10:25 PM 28.7964 -93.2175 83° East 521 600 34,900  Level Houston Center
Thu 01:11:27 PM 28.8008 -93.0539 88° East 519 597 34,900  Level Houston Center
Thu 01:12:28 PM 28.8064 -92.8892 88° East 521 600 34,900  Level Houston Center
Thu 01:13:30 PM 28.8125 -92.7233 88° East 524 603 34,900  Level Houston Center
Thu 01:14:32 PM 28.8178 -92.5556 88° East 530 610 34,900  Level Houston Center
Thu 01:15:34 PM 28.8192 -92.3900 89° East 528 608 34,900  Level Houston Center
Thu 01:16:36 PM 28.8594 -92.1922 77° East 535 616 34,900  Level Houston Center
Thu 01:17:38 PM 28.9047 -92.0267 73° East 544 626 34,900  Level Houston Center
Thu 01:18:40 PM 28.9578 -91.8644 69° East 545 627 34,900  Level Houston Center
Thu 01:19:41 PM 29.0072 -91.7106 70° East 550 633 34,900  Level Houston Center
Thu 01:20:43 PM 29.0658 -91.5550 67° East 540 621 34,900  Level Houston Center
Thu 01:21:45 PM 29.1547 -91.3783 60° Northeast 542 624 34,900  Level Houston Center
Thu 01:22:47 PM 29.2311 -91.2336 59° Northeast 534 615 34,900  Level Houston Center
Thu 01:23:49 PM 29.3094 -91.0917 58° Northeast 530 610 34,900  Level Houston Center
Thu 01:25:00 PM 29.3839 -90.9365 61° Northeast  Level FlightAware Approximate
Thu 01:25:52 PM 29.3914 -90.7778 61° Northeast 514 592 34,900  Level Houston Center
Thu 01:26:54 PM 29.4250 -90.6192 76° East 513 590 34,900  Level Houston Center
Thu 01:27:56 PM 29.4664 -90.4294 76° East 513 590 34,900  Level Houston Center
Thu 01:28:58 PM 29.5214 -90.2792 67° East 524 603 34,900  Level Houston Center
Thu 01:30:00 PM 29.6128 -90.1528 50° Northeast 518 596 34,900  Level Houston Center
Thu 01:31:02 PM 29.7089 -90.0269 49° Northeast 521 600 34,900  Level Houston Center
Thu 01:32:03 PM 29.8031 -89.9003 49° Northeast 524 603 34,900  Level Houston Center
Thu 01:33:05 PM 29.8964 -89.7753 49° Northeast 520 598 34,900  Level Houston Center
Thu 01:34:07 PM 30.0089 -89.6194 50° Northeast 526 605 34,900  Level Houston Center
Thu 01:35:09 PM 30.1028 -89.4956 49° Northeast 526 605 34,900  Level Houston Center
Thu 01:36:11 PM 30.1961 -89.3675 50° Northeast 527 606 34,900  Level Houston Center
Thu 01:37:13 PM 30.2897 -89.2408 49° Northeast 526 605 34,900  Level Houston Center
Thu 01:38:15 PM 30.4017 -89.0850 50° Northeast 527 606 34,900  Level Houston Center
Thu 01:39:17 PM 30.4958 -88.9578 49° Northeast 524 603 34,900 48 Level Houston Center
Thu 01:40:19 PM 30.5861 -88.8489 46° Northeast 523 602 35,000  Climbing Houston Center
Thu 01:41:21 PM 30.7158 -88.7897 21° North 501 577 34,900 -49 Descending Houston Center
Thu 01:42:22 PM 30.8736 -88.7150 22° Northeast 506 582 34,900 -32 Level Houston Center
Thu 01:44:26 PM 31.1464 -88.5914 21° North 510 587 34,800 -419 Descending Houston Center
Thu 01:45:28 PM 31.2736 -88.5375 20° North 512 589 33,600 -1,161 Descending Houston Center
Thu 01:46:30 PM 31.4044 -88.4806 20° North 502 578 32,400 -1,258 Descending Houston Center
Thu 01:47:32 PM 31.5297 -88.4078 26° Northeast 501 577 31,000 -1,306 Descending Houston Center
Thu 01:48:34 PM 31.6578 -88.3528 20° North 492 566 29,700 -1,367 Descending Houston Center
Thu 01:48:51 PM 31.7114 -88.3375 14° North 485 558 29,200 -545 Descending Atlanta Center
Thu 01:49:51 PM 31.8367 -88.2775 22° Northeast 480 552 29,000 -750 Descending Atlanta Center
Thu 01:50:51 PM 31.9533 -88.2194 23° Northeast 466 536 27,700 -1,700 Descending Atlanta Center
Thu 01:51:51 PM 32.0761 -88.1714 18° North 459 528 25,600 -1,850 Descending Atlanta Center
Thu 01:52:51 PM 32.1950 -88.1081 24° Northeast 459 528 24,000 -2,050 Descending Atlanta Center
Thu 01:53:51 PM 32.3117 -88.0519 22° Northeast 453 521 21,500 -2,500 Descending Atlanta Center
Thu 01:54:51 PM 32.4281 -88.0006 20° North 448 516 19,000 -2,550 Descending Atlanta Center
Thu 01:55:51 PM 32.5367 -87.9389 26° Northeast 436 502 16,400 -2,681 Descending Atlanta Center
Thu 01:56:25 PM 32.5981 -87.9122 20° North 423 487 14,800 -2,769 Descending Atlanta Center
Thu 01:56:56 PM 32.6531 -87.8875 21° North 417 480 13,400 -2,302 Descending Atlanta Center
Thu 01:57:51 PM 32.7483 -87.8372 24° Northeast 411 473 11,500 -1,670 Descending Atlanta Center
Thu 01:58:51 PM 32.8439 -87.7919 22° Northeast 387 445 10,200 -1,100 Descending Atlanta Center
Thu 01:59:51 PM 32.9206 -87.7333 33° Northeast 349 402 9,300 -1,537 Descending Atlanta Center
Thu 02:00:52 PM 32.9911 -87.6794 33° Northeast 318 366 7,100 -1,800 Descending Atlanta Center
Thu 02:01:51 PM 33.0597 -87.6228 35° Northeast 314 361 5,700 -942 Descending Atlanta Center
Thu 02:02:53 PM 33.1222 -87.5508 44° Northeast 287 330 5,200 -250 Descending Atlanta Center
Thu 02:03:51 PM 33.1700 -87.4858 49° Northeast 284 327 5,200 -610 Level Atlanta Center
Thu 02:04:51 PM 33.2217 -87.4258 44° Northeast 269 310 4,000 -1,250 Descending Atlanta Center
Thu 02:05:51 PM 33.2792 -87.3833 32° Northeast 250 288 2,700 -672 Descending Atlanta Center
Thu 02:06:56 PM 33.2981 -87.4536 288° West 163 188 2,600 -480 Descending Atlanta Center
Thu 02:07:56 PM 33.2803 -87.4978 244° Southwest 136 157 1,700 -397 Descending Atlanta Center
Thu 02:08:57 PM 33.2644 -87.5417 247° West 142 163 1,800 -149 Climbing Atlanta Center
Thu 02:09:57 PM 33.2525 -87.5883 253° West 151 174 1,400 -198 Descending Atlanta Center
Thu 02:10:58 PM 33.2506 -87.5908 227° Southwest 151 174 1,400  Level Atlanta Center

Login

Don't have an account? Register now (free) for customized features, flight alerts, and more!